Portada
METAR-TAF:

METAR-TAF

Aeroports :

Bahawalpur, Pakistan

latitud: 29-20-53N, longitud: 71-43-04E, altitud: 119 m

METAR: manca

Hora: 02:11 (21:11 UTC)

Pronòstic

L'informe es va fer fa 5 hores i 1 minuts, a les 16:10 UTC
Pronòstic vàlid del 16 a les 18 UTC al 17 a les 12 UTC
Vent 5 kt del Sud
Visibilitat: 3000 m
fum
Probabilitat 30% :
Temporalment
l' 17 a les 01 UTC al 17 a les 05 UTC
Vent kt del Nord
Visibilitat: 2000 m
Escasses núvols a una alçada de 12000 ft
boirina
A partir de les UTC
Vent 10 kt del Sud-Oest
Visibilitat: 5000 m
Núvols disperses a una alçada de 12000 ft
calitja

TAF: OPBW 161610Z 1618/1712 18005KT 3000 FU NSC TN20/1701Z TX35/1710Z PROB30 TEMPO 1701/1705 00000KT 2000 BR FEW120 FM 170700 23010KT 5000 HZ SCT120

Observacions i pronòstics meteorològics de més de 4000 aeroports (METAR i TAF).

Les estacions disponibles són els punts grocs i vermells al mapa.

Posi el ratolí al punt desitjat per veure el nom de l'estació.

Feu clic per veure les observacions i els pronòstics meteorològics.

Per canviar el mapa: feu clic els botons verds amb una creu de color negre per apropar; al botó verd amb un guió per allunyar la imatge; o en les fletxes verdes per a mapes adjacents.


METAR-TAF: